sensor_id;sensor_type;location;lat;lon;timestamp;P1;durP1;ratioP1;P2;durP2;ratioP2
80557;SDS011;69901;43.524;-5.636;2023-08-12T00:12:45;7.57;;;2.33;;
80557;SDS011;69901;43.524;-5.636;2023-08-12T00:15:10;8.23;;;2.37;;
80557;SDS011;69901;43.524;-5.636;2023-08-12T00:17:36;8.00;;;2.40;;
80557;SDS011;69901;43.524;-5.636;2023-08-12T00:20:06;9.70;;;2.55;;
80557;SDS011;69901;43.524;-5.636;2023-08-12T00:22:35;8.70;;;2.53;;
80557;SDS011;69901;43.524;-5.636;2023-08-12T00:25:00;7.80;;;2.50;;
80557;SDS011;69901;43.524;-5.636;2023-08-12T00:27:26;7.10;;;2.43;;
80557;SDS011;69901;43.524;-5.636;2023-08-12T00:29:51;7.13;;;2.17;;
80557;SDS011;69901;43.524;-5.636;2023-08-12T00:32:17;5.63;;;1.77;;
80557;SDS011;69901;43.524;-5.636;2023-08-12T00:34:43;7.85;;;2.25;;
80557;SDS011;69901;43.524;-5.636;2023-08-12T00:37:08;8.10;;;2.60;;
80557;SDS011;69901;43.524;-5.636;2023-08-12T00:39:34;6.32;;;2.22;;
80557;SDS011;69901;43.524;-5.636;2023-08-12T00:42:00;7.30;;;2.93;;
80557;SDS011;69901;43.524;-5.636;2023-08-12T00:44:26;8.50;;;2.57;;
80557;SDS011;69901;43.524;-5.636;2023-08-12T00:46:51;10.32;;;2.50;;
80557;SDS011;69901;43.524;-5.636;2023-08-12T00:49:17;8.97;;;2.30;;
80557;SDS011;69901;43.524;-5.636;2023-08-12T00:51:43;8.75;;;2.20;;
80557;SDS011;69901;43.524;-5.636;2023-08-12T00:54:13;7.53;;;2.47;;
80557;SDS011;69901;43.524;-5.636;2023-08-12T00:56:40;9.20;;;2.22;;
80557;SDS011;69901;43.524;-5.636;2023-08-12T00:59:07;9.60;;;2.65;;
80557;SDS011;69901;43.524;-5.636;2023-08-12T01:01:34;7.70;;;2.53;;
80557;SDS011;69901;43.524;-5.636;2023-08-12T01:04:00;7.95;;;2.78;;
80557;SDS011;69901;43.524;-5.636;2023-08-12T01:06:26;8.63;;;2.33;;
80557;SDS011;69901;43.524;-5.636;2023-08-12T01:08:52;7.60;;;2.20;;
80557;SDS011;69901;43.524;-5.636;2023-08-12T01:13:58;6.72;;;2.42;;
80557;SDS011;69901;43.524;-5.636;2023-08-12T01:16:26;8.73;;;2.80;;
80557;SDS011;69901;43.524;-5.636;2023-08-12T01:18:55;6.27;;;2.30;;
80557;SDS011;69901;43.524;-5.636;2023-08-12T01:21:21;7.55;;;2.53;;
80557;SDS011;69901;43.524;-5.636;2023-08-12T01:23:51;7.43;;;2.40;;
80557;SDS011;69901;43.524;-5.636;2023-08-12T01:26:17;9.20;;;3.07;;
80557;SDS011;69901;43.524;-5.636;2023-08-12T01:28:42;9.83;;;3.50;;
80557;SDS011;69901;43.524;-5.636;2023-08-12T01:31:12;9.05;;;3.20;;
80557;SDS011;69901;43.524;-5.636;2023-08-12T01:33:49;9.30;;;3.67;;
80557;SDS011;69901;43.524;-5.636;2023-08-12T01:36:21;12.37;;;5.10;;
80557;SDS011;69901;43.524;-5.636;2023-08-12T01:38:51;12.70;;;7.05;;
80557;SDS011;69901;43.524;-5.636;2023-08-12T01:41:20;12.02;;;5.65;;
80557;SDS011;69901;43.524;-5.636;2023-08-12T01:43:48;10.25;;;4.60;;
80557;SDS011;69901;43.524;-5.636;2023-08-12T01:46:14;12.13;;;5.00;;
80557;SDS011;69901;43.524;-5.636;2023-08-12T01:48:39;13.30;;;3.80;;
80557;SDS011;69901;43.524;-5.636;2023-08-12T01:51:05;8.37;;;3.20;;
80557;SDS011;69901;43.524;-5.636;2023-08-12T01:53:31;8.87;;;3.40;;
80557;SDS011;69901;43.524;-5.636;2023-08-12T01:55:56;8.25;;;3.33;;
80557;SDS011;69901;43.524;-5.636;2023-08-12T01:58:22;8.53;;;3.23;;
80557;SDS011;69901;43.524;-5.636;2023-08-12T02:00:47;7.90;;;2.93;;
80557;SDS011;69901;43.524;-5.636;2023-08-12T02:03:12;8.63;;;2.77;;
80557;SDS011;69901;43.524;-5.636;2023-08-12T02:05:38;8.77;;;2.67;;
80557;SDS011;69901;43.524;-5.636;2023-08-12T02:08:04;10.00;;;3.13;;
80557;SDS011;69901;43.524;-5.636;2023-08-12T02:10:30;8.75;;;3.30;;
80557;SDS011;69901;43.524;-5.636;2023-08-12T02:12:55;7.97;;;3.60;;
80557;SDS011;69901;43.524;-5.636;2023-08-12T02:15:21;9.77;;;3.93;;
80557;SDS011;69901;43.524;-5.636;2023-08-12T02:17:46;18.05;;;11.68;;
80557;SDS011;69901;43.524;-5.636;2023-08-12T02:20:12;18.63;;;11.30;;
80557;SDS011;69901;43.524;-5.636;2023-08-12T02:22:37;15.40;;;9.93;;
80557;SDS011;69901;43.524;-5.636;2023-08-12T02:25:03;12.30;;;7.10;;
80557;SDS011;69901;43.524;-5.636;2023-08-12T02:27:28;9.25;;;5.03;;
80557;SDS011;69901;43.524;-5.636;2023-08-12T02:29:54;8.47;;;3.00;;
80557;SDS011;69901;43.524;-5.636;2023-08-12T02:32:19;8.23;;;2.13;;
80557;SDS011;69901;43.524;-5.636;2023-08-12T02:34:44;6.30;;;2.25;;
80557;SDS011;69901;43.524;-5.636;2023-08-12T02:37:10;7.93;;;2.27;;
80557;SDS011;69901;43.524;-5.636;2023-08-12T02:39:37;9.05;;;2.95;;
80557;SDS011;69901;43.524;-5.636;2023-08-12T02:42:03;7.27;;;2.37;;
80557;SDS011;69901;43.524;-5.636;2023-08-12T02:44:28;9.63;;;3.60;;
80557;SDS011;69901;43.524;-5.636;2023-08-12T02:46:54;7.10;;;3.37;;
80557;SDS011;69901;43.524;-5.636;2023-08-12T02:49:19;10.25;;;3.65;;
80557;SDS011;69901;43.524;-5.636;2023-08-12T02:51:44;10.97;;;4.73;;
80557;SDS011;69901;43.524;-5.636;2023-08-12T02:54:10;11.30;;;4.13;;
80557;SDS011;69901;43.524;-5.636;2023-08-12T02:56:35;10.43;;;4.33;;
80557;SDS011;69901;43.524;-5.636;2023-08-12T02:59:01;8.38;;;3.63;;
80557;SDS011;69901;43.524;-5.636;2023-08-12T03:01:26;8.93;;;4.20;;
80557;SDS011;69901;43.524;-5.636;2023-08-12T03:03:52;8.48;;;3.25;;
80557;SDS011;69901;43.524;-5.636;2023-08-12T03:06:18;9.00;;;3.40;;
80557;SDS011;69901;43.524;-5.636;2023-08-12T03:08:43;9.33;;;3.80;;
80557;SDS011;69901;43.524;-5.636;2023-08-12T03:11:09;9.95;;;3.45;;
80557;SDS011;69901;43.524;-5.636;2023-08-12T03:13:34;8.50;;;3.20;;
80557;SDS011;69901;43.524;-5.636;2023-08-12T03:16:00;9.23;;;3.10;;
80557;SDS011;69901;43.524;-5.636;2023-08-12T03:18:25;10.18;;;3.22;;
80557;SDS011;69901;43.524;-5.636;2023-08-12T03:20:51;10.10;;;3.63;;
80557;SDS011;69901;43.524;-5.636;2023-08-12T03:23:16;11.03;;;3.73;;
80557;SDS011;69901;43.524;-5.636;2023-08-12T03:25:42;7.90;;;2.00;;
80557;SDS011;69901;43.524;-5.636;2023-08-12T03:28:07;10.73;;;1.58;;
80557;SDS011;69901;43.524;-5.636;2023-08-12T03:30:33;12.00;;;1.43;;
80557;SDS011;69901;43.524;-5.636;2023-08-12T03:32:58;9.10;;;1.77;;
80557;SDS011;69901;43.524;-5.636;2023-08-12T03:35:24;8.33;;;1.40;;
80557;SDS011;69901;43.524;-5.636;2023-08-12T03:37:49;7.20;;;1.67;;
80557;SDS011;69901;43.524;-5.636;2023-08-12T03:40:16;7.43;;;1.55;;
80557;SDS011;69901;43.524;-5.636;2023-08-12T03:42:41;5.73;;;0.90;;
80557;SDS011;69901;43.524;-5.636;2023-08-12T03:45:07;6.07;;;1.60;;
80557;SDS011;69901;43.524;-5.636;2023-08-12T03:47:33;10.90;;;1.75;;
80557;SDS011;69901;43.524;-5.636;2023-08-12T03:49:58;8.07;;;1.07;;
80557;SDS011;69901;43.524;-5.636;2023-08-12T03:52:23;7.90;;;1.50;;
80557;SDS011;69901;43.524;-5.636;2023-08-12T03:54:49;10.23;;;1.00;;
80557;SDS011;69901;43.524;-5.636;2023-08-12T03:57:14;13.13;;;1.90;;
80557;SDS011;69901;43.524;-5.636;2023-08-12T03:59:40;7.83;;;1.20;;
80557;SDS011;69901;43.524;-5.636;2023-08-12T04:02:05;8.45;;;1.15;;
80557;SDS011;69901;43.524;-5.636;2023-08-12T04:04:31;8.27;;;1.60;;
80557;SDS011;69901;43.524;-5.636;2023-08-12T04:06:56;7.40;;;1.20;;
80557;SDS011;69901;43.524;-5.636;2023-08-12T04:09:22;8.83;;;1.10;;
80557;SDS011;69901;43.524;-5.636;2023-08-12T04:11:47;7.28;;;0.80;;
80557;SDS011;69901;43.524;-5.636;2023-08-12T04:14:13;6.53;;;1.40;;
80557;SDS011;69901;43.524;-5.636;2023-08-12T04:16:39;4.85;;;0.80;;
80557;SDS011;69901;43.524;-5.636;2023-08-12T04:19:05;10.63;;;1.40;;
80557;SDS011;69901;43.524;-5.636;2023-08-12T04:21:30;10.80;;;1.20;;
80557;SDS011;69901;43.524;-5.636;2023-08-12T04:23:56;10.20;;;1.73;;
80557;SDS011;69901;43.524;-5.636;2023-08-12T04:26:21;9.37;;;0.80;;
80557;SDS011;69901;43.524;-5.636;2023-08-12T04:28:47;10.00;;;1.50;;
80557;SDS011;69901;43.524;-5.636;2023-08-12T04:31:12;8.53;;;2.00;;
80557;SDS011;69901;43.524;-5.636;2023-08-12T04:33:38;9.50;;;1.50;;
80557;SDS011;69901;43.524;-5.636;2023-08-12T04:36:03;15.07;;;1.90;;
80557;SDS011;69901;43.524;-5.636;2023-08-12T04:38:29;14.20;;;1.73;;
80557;SDS011;69901;43.524;-5.636;2023-08-12T04:40:56;9.52;;;1.48;;
80557;SDS011;69901;43.524;-5.636;2023-08-12T04:43:22;8.73;;;1.58;;
80557;SDS011;69901;43.524;-5.636;2023-08-12T04:45:47;8.13;;;1.10;;
80557;SDS011;69901;43.524;-5.636;2023-08-12T04:48:14;9.80;;;1.70;;
80557;SDS011;69901;43.524;-5.636;2023-08-12T04:50:39;10.63;;;1.50;;
80557;SDS011;69901;43.524;-5.636;2023-08-12T04:53:06;9.18;;;1.73;;
80557;SDS011;69901;43.524;-5.636;2023-08-12T04:55:33;7.68;;;1.48;;
80557;SDS011;69901;43.524;-5.636;2023-08-12T04:57:59;8.75;;;1.60;;
80557;SDS011;69901;43.524;-5.636;2023-08-12T05:00:25;8.27;;;1.30;;
80557;SDS011;69901;43.524;-5.636;2023-08-12T05:02:50;7.10;;;1.23;;
80557;SDS011;69901;43.524;-5.636;2023-08-12T05:05:16;6.63;;;1.07;;
80557;SDS011;69901;43.524;-5.636;2023-08-12T05:07:41;7.47;;;1.25;;
80557;SDS011;69901;43.524;-5.636;2023-08-12T05:10:07;4.97;;;0.97;;
80557;SDS011;69901;43.524;-5.636;2023-08-12T05:12:33;8.60;;;1.45;;
80557;SDS011;69901;43.524;-5.636;2023-08-12T05:14:58;5.00;;;1.23;;
80557;SDS011;69901;43.524;-5.636;2023-08-12T05:17:24;5.93;;;1.20;;
80557;SDS011;69901;43.524;-5.636;2023-08-12T05:19:49;5.50;;;1.15;;
80557;SDS011;69901;43.524;-5.636;2023-08-12T05:22:15;7.47;;;1.03;;
80557;SDS011;69901;43.524;-5.636;2023-08-12T05:24:41;5.68;;;0.82;;
80557;SDS011;69901;43.524;-5.636;2023-08-12T05:27:06;4.93;;;1.17;;
80557;SDS011;69901;43.524;-5.636;2023-08-12T05:29:32;6.20;;;1.37;;
80557;SDS011;69901;43.524;-5.636;2023-08-12T05:31:57;8.75;;;1.20;;
80557;SDS011;69901;43.524;-5.636;2023-08-12T05:34:23;8.83;;;1.23;;
80557;SDS011;69901;43.524;-5.636;2023-08-12T05:36:48;10.87;;;1.60;;
80557;SDS011;69901;43.524;-5.636;2023-08-12T05:39:13;8.90;;;1.50;;
80557;SDS011;69901;43.524;-5.636;2023-08-12T05:41:40;9.70;;;0.88;;
80557;SDS011;69901;43.524;-5.636;2023-08-12T05:44:06;8.13;;;1.38;;
80557;SDS011;69901;43.524;-5.636;2023-08-12T05:46:32;5.67;;;1.13;;
80557;SDS011;69901;43.524;-5.636;2023-08-12T05:48:57;7.78;;;1.33;;
80557;SDS011;69901;43.524;-5.636;2023-08-12T05:51:23;7.43;;;1.07;;
80557;SDS011;69901;43.524;-5.636;2023-08-12T05:53:48;5.83;;;1.30;;
80557;SDS011;69901;43.524;-5.636;2023-08-12T05:56:14;6.35;;;1.35;;
80557;SDS011;69901;43.524;-5.636;2023-08-12T05:58:39;5.07;;;0.90;;
80557;SDS011;69901;43.524;-5.636;2023-08-12T06:01:05;6.33;;;1.30;;
80557;SDS011;69901;43.524;-5.636;2023-08-12T06:03:30;6.63;;;1.50;;
80557;SDS011;69901;43.524;-5.636;2023-08-12T06:05:55;7.40;;;1.33;;
80557;SDS011;69901;43.524;-5.636;2023-08-12T06:08:21;6.63;;;1.20;;
80557;SDS011;69901;43.524;-5.636;2023-08-12T06:10:46;4.43;;;0.70;;
80557;SDS011;69901;43.524;-5.636;2023-08-12T06:13:12;6.37;;;1.10;;
80557;SDS011;69901;43.524;-5.636;2023-08-12T06:15:37;4.68;;;1.00;;
80557;SDS011;69901;43.524;-5.636;2023-08-12T06:18:03;6.33;;;1.17;;
80557;SDS011;69901;43.524;-5.636;2023-08-12T06:20:28;6.60;;;0.95;;
80557;SDS011;69901;43.524;-5.636;2023-08-12T06:22:54;5.80;;;0.90;;
80557;SDS011;69901;43.524;-5.636;2023-08-12T06:25:19;6.70;;;1.10;;
80557;SDS011;69901;43.524;-5.636;2023-08-12T06:27:45;4.97;;;0.80;;
80557;SDS011;69901;43.524;-5.636;2023-08-12T06:30:12;5.30;;;1.00;;
80557;SDS011;69901;43.524;-5.636;2023-08-12T06:32:38;7.95;;;1.00;;
80557;SDS011;69901;43.524;-5.636;2023-08-12T06:35:04;8.38;;;0.73;;
80557;SDS011;69901;43.524;-5.636;2023-08-12T06:37:30;7.72;;;1.17;;
80557;SDS011;69901;43.524;-5.636;2023-08-12T06:39:56;7.13;;;0.97;;
80557;SDS011;69901;43.524;-5.636;2023-08-12T06:42:21;5.73;;;0.93;;
80557;SDS011;69901;43.524;-5.636;2023-08-12T06:44:54;6.28;;;0.90;;
80557;SDS011;69901;43.524;-5.636;2023-08-12T06:47:21;8.80;;;1.33;;
80557;SDS011;69901;43.524;-5.636;2023-08-12T06:49:46;6.80;;;1.20;;
80557;SDS011;69901;43.524;-5.636;2023-08-12T06:52:12;7.07;;;1.17;;
80557;SDS011;69901;43.524;-5.636;2023-08-12T06:54:37;6.77;;;1.10;;
80557;SDS011;69901;43.524;-5.636;2023-08-12T06:57:03;4.50;;;0.80;;
80557;SDS011;69901;43.524;-5.636;2023-08-12T06:59:28;7.80;;;1.20;;
80557;SDS011;69901;43.524;-5.636;2023-08-12T07:01:54;6.97;;;0.98;;
80557;SDS011;69901;43.524;-5.636;2023-08-12T07:04:19;8.37;;;1.23;;
80557;SDS011;69901;43.524;-5.636;2023-08-12T07:06:45;8.53;;;1.27;;
80557;SDS011;69901;43.524;-5.636;2023-08-12T07:09:10;9.15;;;1.35;;
80557;SDS011;69901;43.524;-5.636;2023-08-12T07:11:36;5.57;;;1.20;;
80557;SDS011;69901;43.524;-5.636;2023-08-12T07:14:01;9.20;;;1.27;;
80557;SDS011;69901;43.524;-5.636;2023-08-12T07:16:26;8.00;;;1.70;;
80557;SDS011;69901;43.524;-5.636;2023-08-12T07:18:52;5.73;;;1.47;;
80557;SDS011;69901;43.524;-5.636;2023-08-12T07:21:17;5.20;;;1.03;;
80557;SDS011;69901;43.524;-5.636;2023-08-12T07:23:43;7.47;;;1.50;;
80557;SDS011;69901;43.524;-5.636;2023-08-12T07:26:09;9.05;;;1.38;;
80557;SDS011;69901;43.524;-5.636;2023-08-12T07:28:34;8.80;;;1.40;;
80557;SDS011;69901;43.524;-5.636;2023-08-12T07:31:00;8.50;;;1.30;;
80557;SDS011;69901;43.524;-5.636;2023-08-12T07:33:26;8.30;;;1.48;;
80557;SDS011;69901;43.524;-5.636;2023-08-12T07:35:52;9.77;;;1.30;;
80557;SDS011;69901;43.524;-5.636;2023-08-12T07:38:17;7.47;;;1.42;;
80557;SDS011;69901;43.524;-5.636;2023-08-12T07:40:43;10.07;;;1.27;;
80557;SDS011;69901;43.524;-5.636;2023-08-12T07:43:08;8.13;;;1.57;;
80557;SDS011;69901;43.524;-5.636;2023-08-12T07:45:34;9.35;;;1.08;;
80557;SDS011;69901;43.524;-5.636;2023-08-12T07:48:00;11.20;;;1.87;;
80557;SDS011;69901;43.524;-5.636;2023-08-12T07:50:25;7.73;;;1.23;;
80557;SDS011;69901;43.524;-5.636;2023-08-12T07:52:50;7.15;;;1.35;;
80557;SDS011;69901;43.524;-5.636;2023-08-12T07:55:18;9.03;;;1.13;;
80557;SDS011;69901;43.524;-5.636;2023-08-12T07:57:44;8.48;;;1.42;;
80557;SDS011;69901;43.524;-5.636;2023-08-12T08:00:11;8.32;;;1.38;;
80557;SDS011;69901;43.524;-5.636;2023-08-12T08:02:37;6.47;;;1.37;;
80557;SDS011;69901;43.524;-5.636;2023-08-12T08:05:03;7.82;;;1.30;;
80557;SDS011;69901;43.524;-5.636;2023-08-12T08:07:29;8.15;;;1.60;;
80557;SDS011;69901;43.524;-5.636;2023-08-12T08:09:55;6.63;;;1.73;;
80557;SDS011;69901;43.524;-5.636;2023-08-12T08:12:20;11.97;;;1.77;;
80557;SDS011;69901;43.524;-5.636;2023-08-12T08:14:46;11.20;;;2.00;;
80557;SDS011;69901;43.524;-5.636;2023-08-12T08:17:11;8.93;;;1.80;;
80557;SDS011;69901;43.524;-5.636;2023-08-12T08:19:37;10.07;;;1.50;;
80557;SDS011;69901;43.524;-5.636;2023-08-12T08:22:02;11.83;;;2.70;;
80557;SDS011;69901;43.524;-5.636;2023-08-12T08:24:28;10.20;;;3.07;;
80557;SDS011;69901;43.524;-5.636;2023-08-12T08:26:54;11.60;;;2.67;;
80557;SDS011;69901;43.524;-5.636;2023-08-12T08:29:19;10.80;;;3.00;;
80557;SDS011;69901;43.524;-5.636;2023-08-12T08:31:45;10.50;;;3.17;;
80557;SDS011;69901;43.524;-5.636;2023-08-12T08:34:11;11.38;;;3.15;;
80557;SDS011;69901;43.524;-5.636;2023-08-12T08:36:36;8.77;;;2.50;;
80557;SDS011;69901;43.524;-5.636;2023-08-12T08:39:02;9.90;;;2.80;;
80557;SDS011;69901;43.524;-5.636;2023-08-12T08:41:28;11.30;;;1.88;;
80557;SDS011;69901;43.524;-5.636;2023-08-12T08:43:55;10.70;;;2.35;;
80557;SDS011;69901;43.524;-5.636;2023-08-12T08:46:28;8.00;;;1.52;;
80557;SDS011;69901;43.524;-5.636;2023-08-12T08:48:54;10.60;;;2.40;;
80557;SDS011;69901;43.524;-5.636;2023-08-12T08:51:23;8.60;;;1.80;;
80557;SDS011;69901;43.524;-5.636;2023-08-12T08:53:50;7.43;;;2.08;;
80557;SDS011;69901;43.524;-5.636;2023-08-12T08:56:19;8.52;;;1.65;;
80557;SDS011;69901;43.524;-5.636;2023-08-12T08:58:45;11.73;;;1.53;;
80557;SDS011;69901;43.524;-5.636;2023-08-12T09:01:11;10.45;;;2.30;;
80557;SDS011;69901;43.524;-5.636;2023-08-12T09:03:38;9.75;;;2.00;;
80557;SDS011;69901;43.524;-5.636;2023-08-12T09:06:04;8.73;;;1.40;;
80557;SDS011;69901;43.524;-5.636;2023-08-12T09:08:31;10.07;;;2.00;;
80557;SDS011;69901;43.524;-5.636;2023-08-12T09:10:57;11.52;;;2.75;;
80557;SDS011;69901;43.524;-5.636;2023-08-12T09:13:25;11.00;;;1.65;;
80557;SDS011;69901;43.524;-5.636;2023-08-12T09:15:50;10.47;;;2.23;;
80557;SDS011;69901;43.524;-5.636;2023-08-12T09:18:16;9.27;;;1.80;;
80557;SDS011;69901;43.524;-5.636;2023-08-12T09:20:42;9.40;;;1.90;;
80557;SDS011;69901;43.524;-5.636;2023-08-12T09:23:08;11.20;;;2.15;;
80557;SDS011;69901;43.524;-5.636;2023-08-12T09:25:40;10.25;;;1.70;;
80557;SDS011;69901;43.524;-5.636;2023-08-12T09:28:09;10.07;;;2.08;;
80557;SDS011;69901;43.524;-5.636;2023-08-12T09:30:35;12.20;;;2.30;;
80557;SDS011;69901;43.524;-5.636;2023-08-12T09:33:02;10.43;;;2.27;;
80557;SDS011;69901;43.524;-5.636;2023-08-12T09:35:36;11.88;;;2.30;;
80557;SDS011;69901;43.524;-5.636;2023-08-12T09:38:06;10.75;;;1.92;;
80557;SDS011;69901;43.524;-5.636;2023-08-12T09:40:35;10.57;;;2.50;;
80557;SDS011;69901;43.524;-5.636;2023-08-12T09:43:02;10.47;;;1.97;;
80557;SDS011;69901;43.524;-5.636;2023-08-12T09:45:30;10.60;;;2.22;;
80557;SDS011;69901;43.524;-5.636;2023-08-12T09:47:56;13.60;;;2.30;;
80557;SDS011;69901;43.524;-5.636;2023-08-12T09:50:22;11.70;;;2.40;;
80557;SDS011;69901;43.524;-5.636;2023-08-12T09:52:50;7.90;;;2.05;;
80557;SDS011;69901;43.524;-5.636;2023-08-12T09:55:17;10.47;;;2.10;;
80557;SDS011;69901;43.524;-5.636;2023-08-12T09:57:43;11.60;;;2.78;;
80557;SDS011;69901;43.524;-5.636;2023-08-12T10:00:09;10.60;;;3.03;;
80557;SDS011;69901;43.524;-5.636;2023-08-12T10:02:39;13.15;;;2.63;;
80557;SDS011;69901;43.524;-5.636;2023-08-12T10:05:06;13.18;;;2.38;;
80557;SDS011;69901;43.524;-5.636;2023-08-12T10:07:36;10.37;;;1.87;;
80557;SDS011;69901;43.524;-5.636;2023-08-12T10:10:01;11.90;;;2.67;;
80557;SDS011;69901;43.524;-5.636;2023-08-12T10:12:27;11.43;;;2.40;;
80557;SDS011;69901;43.524;-5.636;2023-08-12T10:14:54;9.93;;;2.50;;
80557;SDS011;69901;43.524;-5.636;2023-08-12T10:17:19;11.53;;;2.97;;
80557;SDS011;69901;43.524;-5.636;2023-08-12T10:19:46;12.07;;;3.40;;
80557;SDS011;69901;43.524;-5.636;2023-08-12T10:22:12;11.50;;;2.88;;
80557;SDS011;69901;43.524;-5.636;2023-08-12T10:24:40;10.50;;;2.28;;
80557;SDS011;69901;43.524;-5.636;2023-08-12T10:27:07;10.68;;;2.63;;
80557;SDS011;69901;43.524;-5.636;2023-08-12T10:29:34;11.00;;;3.07;;
80557;SDS011;69901;43.524;-5.636;2023-08-12T10:32:00;12.90;;;3.00;;
80557;SDS011;69901;43.524;-5.636;2023-08-12T10:34:28;9.63;;;1.85;;
80557;SDS011;69901;43.524;-5.636;2023-08-12T10:36:54;9.32;;;2.30;;
80557;SDS011;69901;43.524;-5.636;2023-08-12T10:39:27;9.43;;;2.00;;
80557;SDS011;69901;43.524;-5.636;2023-08-12T10:41:55;10.05;;;2.20;;
80557;SDS011;69901;43.524;-5.636;2023-08-12T10:44:22;13.55;;;2.97;;
80557;SDS011;69901;43.524;-5.636;2023-08-12T10:46:52;9.88;;;2.42;;
80557;SDS011;69901;43.524;-5.636;2023-08-12T10:49:19;10.52;;;3.25;;
80557;SDS011;69901;43.524;-5.636;2023-08-12T10:51:50;14.07;;;5.43;;
80557;SDS011;69901;43.524;-5.636;2023-08-12T10:54:21;11.38;;;2.67;;
80557;SDS011;69901;43.524;-5.636;2023-08-12T10:57:05;7.10;;;2.30;;
80557;SDS011;69901;43.524;-5.636;2023-08-12T11:02:17;8.13;;;2.75;;
80557;SDS011;69901;43.524;-5.636;2023-08-12T11:04:44;9.87;;;2.60;;
80557;SDS011;69901;43.524;-5.636;2023-08-12T11:07:20;10.98;;;2.28;;
80557;SDS011;69901;43.524;-5.636;2023-08-12T11:09:52;10.20;;;2.60;;
80557;SDS011;69901;43.524;-5.636;2023-08-12T11:12:18;9.02;;;2.78;;
80557;SDS011;69901;43.524;-5.636;2023-08-12T11:14:53;12.50;;;3.80;;
80557;SDS011;69901;43.524;-5.636;2023-08-12T11:17:19;14.00;;;3.20;;
80557;SDS011;69901;43.524;-5.636;2023-08-12T11:19:45;12.95;;;2.92;;
80557;SDS011;69901;43.524;-5.636;2023-08-12T11:22:11;12.63;;;2.40;;
80557;SDS011;69901;43.524;-5.636;2023-08-12T11:24:40;12.05;;;2.78;;
80557;SDS011;69901;43.524;-5.636;2023-08-12T11:27:09;12.07;;;3.25;;
80557;SDS011;69901;43.524;-5.636;2023-08-12T11:29:35;10.38;;;2.88;;
80557;SDS011;69901;43.524;-5.636;2023-08-12T11:32:02;11.25;;;3.03;;
80557;SDS011;69901;43.524;-5.636;2023-08-12T11:34:27;14.87;;;2.40;;
80557;SDS011;69901;43.524;-5.636;2023-08-12T11:36:53;13.83;;;2.90;;
80557;SDS011;69901;43.524;-5.636;2023-08-12T11:39:19;11.95;;;2.92;;
80557;SDS011;69901;43.524;-5.636;2023-08-12T11:41:46;11.95;;;2.72;;
80557;SDS011;69901;43.524;-5.636;2023-08-12T11:44:32;11.60;;;3.10;;
80557;SDS011;69901;43.524;-5.636;2023-08-12T11:46:57;10.07;;;2.83;;
80557;SDS011;69901;43.524;-5.636;2023-08-12T11:49:23;10.77;;;2.93;;
80557;SDS011;69901;43.524;-5.636;2023-08-12T11:51:48;12.60;;;2.60;;
80557;SDS011;69901;43.524;-5.636;2023-08-12T11:54:15;11.20;;;3.07;;
80557;SDS011;69901;43.524;-5.636;2023-08-12T11:56:41;9.98;;;2.50;;
80557;SDS011;69901;43.524;-5.636;2023-08-12T11:59:07;11.45;;;3.15;;
80557;SDS011;69901;43.524;-5.636;2023-08-12T12:01:32;9.20;;;2.30;;
80557;SDS011;69901;43.524;-5.636;2023-08-12T12:04:00;11.70;;;3.20;;
80557;SDS011;69901;43.524;-5.636;2023-08-12T12:09:09;12.18;;;2.95;;
80557;SDS011;69901;43.524;-5.636;2023-08-12T12:11:35;7.85;;;2.28;;
80557;SDS011;69901;43.524;-5.636;2023-08-12T12:14:05;9.40;;;2.47;;
80557;SDS011;69901;43.524;-5.636;2023-08-12T12:16:41;9.60;;;2.08;;
80557;SDS011;69901;43.524;-5.636;2023-08-12T12:19:13;10.30;;;2.97;;
80557;SDS011;69901;43.524;-5.636;2023-08-12T12:21:52;10.38;;;2.33;;
80557;SDS011;69901;43.524;-5.636;2023-08-12T12:24:18;9.57;;;2.10;;
80557;SDS011;69901;43.524;-5.636;2023-08-12T12:26:45;10.67;;;2.90;;
80557;SDS011;69901;43.524;-5.636;2023-08-12T12:29:14;11.18;;;2.75;;
80557;SDS011;69901;43.524;-5.636;2023-08-12T12:31:40;10.10;;;2.80;;
80557;SDS011;69901;43.524;-5.636;2023-08-12T12:34:07;8.18;;;2.22;;
80557;SDS011;69901;43.524;-5.636;2023-08-12T12:36:36;11.55;;;2.88;;
80557;SDS011;69901;43.524;-5.636;2023-08-12T12:39:05;11.15;;;2.30;;
80557;SDS011;69901;43.524;-5.636;2023-08-12T12:41:31;12.48;;;2.50;;
80557;SDS011;69901;43.524;-5.636;2023-08-12T12:43:59;11.30;;;2.23;;
80557;SDS011;69901;43.524;-5.636;2023-08-12T12:46:25;10.90;;;2.22;;
80557;SDS011;69901;43.524;-5.636;2023-08-12T12:48:51;11.13;;;2.83;;
80557;SDS011;69901;43.524;-5.636;2023-08-12T12:51:16;8.40;;;2.17;;
80557;SDS011;69901;43.524;-5.636;2023-08-12T12:53:42;12.27;;;2.60;;
80557;SDS011;69901;43.524;-5.636;2023-08-12T12:56:07;11.77;;;2.37;;
80557;SDS011;69901;43.524;-5.636;2023-08-12T12:58:33;8.43;;;2.38;;
80557;SDS011;69901;43.524;-5.636;2023-08-12T13:01:00;8.38;;;2.45;;
80557;SDS011;69901;43.524;-5.636;2023-08-12T13:03:26;9.30;;;1.93;;
80557;SDS011;69901;43.524;-5.636;2023-08-12T13:05:52;9.00;;;2.05;;
80557;SDS011;69901;43.524;-5.636;2023-08-12T13:08:18;11.07;;;2.30;;
80557;SDS011;69901;43.524;-5.636;2023-08-12T13:10:43;8.93;;;2.00;;
80557;SDS011;69901;43.524;-5.636;2023-08-12T13:13:09;9.10;;;2.17;;
80557;SDS011;69901;43.524;-5.636;2023-08-12T13:15:35;12.00;;;2.03;;
80557;SDS011;69901;43.524;-5.636;2023-08-12T13:18:00;11.18;;;2.17;;
80557;SDS011;69901;43.524;-5.636;2023-08-12T13:20:26;9.80;;;2.33;;
80557;SDS011;69901;43.524;-5.636;2023-08-12T13:22:51;11.50;;;1.87;;
80557;SDS011;69901;43.524;-5.636;2023-08-12T13:25:17;11.75;;;2.13;;
80557;SDS011;69901;43.524;-5.636;2023-08-12T13:27:42;8.83;;;1.97;;
80557;SDS011;69901;43.524;-5.636;2023-08-12T13:30:08;12.63;;;2.57;;
80557;SDS011;69901;43.524;-5.636;2023-08-12T13:32:36;11.43;;;2.47;;
80557;SDS011;69901;43.524;-5.636;2023-08-12T13:35:02;9.35;;;2.22;;
80557;SDS011;69901;43.524;-5.636;2023-08-12T13:37:28;11.23;;;2.05;;
80557;SDS011;69901;43.524;-5.636;2023-08-12T13:39:53;11.80;;;2.47;;
80557;SDS011;69901;43.524;-5.636;2023-08-12T13:42:18;10.80;;;2.03;;
80557;SDS011;69901;43.524;-5.636;2023-08-12T13:44:44;10.77;;;1.80;;
80557;SDS011;69901;43.524;-5.636;2023-08-12T13:47:09;9.65;;;2.25;;
80557;SDS011;69901;43.524;-5.636;2023-08-12T13:49:35;9.73;;;2.53;;
80557;SDS011;69901;43.524;-5.636;2023-08-12T13:52:00;9.77;;;2.23;;
80557;SDS011;69901;43.524;-5.636;2023-08-12T13:54:26;9.57;;;1.97;;
80557;SDS011;69901;43.524;-5.636;2023-08-12T13:56:51;14.02;;;2.53;;
80557;SDS011;69901;43.524;-5.636;2023-08-12T13:59:17;10.40;;;1.50;;
80557;SDS011;69901;43.524;-5.636;2023-08-12T14:01:42;9.30;;;2.30;;
80557;SDS011;69901;43.524;-5.636;2023-08-12T14:04:07;8.70;;;1.80;;
80557;SDS011;69901;43.524;-5.636;2023-08-12T14:06:33;9.27;;;2.45;;
80557;SDS011;69901;43.524;-5.636;2023-08-12T14:08:58;10.83;;;2.83;;
80557;SDS011;69901;43.524;-5.636;2023-08-12T14:11:24;12.03;;;2.40;;
80557;SDS011;69901;43.524;-5.636;2023-08-12T14:13:49;12.30;;;2.40;;
80557;SDS011;69901;43.524;-5.636;2023-08-12T14:16:15;10.85;;;2.55;;
80557;SDS011;69901;43.524;-5.636;2023-08-12T14:18:40;15.33;;;3.27;;
80557;SDS011;69901;43.524;-5.636;2023-08-12T14:21:06;13.57;;;2.40;;
80557;SDS011;69901;43.524;-5.636;2023-08-12T14:23:31;9.57;;;2.40;;
80557;SDS011;69901;43.524;-5.636;2023-08-12T14:25:56;8.88;;;2.30;;
80557;SDS011;69901;43.524;-5.636;2023-08-12T14:28:22;11.87;;;2.43;;
80557;SDS011;69901;43.524;-5.636;2023-08-12T14:30:48;9.02;;;2.42;;
80557;SDS011;69901;43.524;-5.636;2023-08-12T14:33:13;13.93;;;2.37;;
80557;SDS011;69901;43.524;-5.636;2023-08-12T14:35:39;13.43;;;2.13;;
80557;SDS011;69901;43.524;-5.636;2023-08-12T14:38:04;10.97;;;2.00;;
80557;SDS011;69901;43.524;-5.636;2023-08-12T14:40:30;9.20;;;2.20;;
80557;SDS011;69901;43.524;-5.636;2023-08-12T14:42:55;13.23;;;2.33;;